Time;durP1;ratioP1;P1;durP2;ratioP2;P2;SDS_P1;SDS_P2;PMS_P1;PMS_P2;Temp;Humidity;BMP_temperature;BMP_pressure;BME280_temperature;BME280_humidity;BME280_pressure;Samples;Min_cycle;Max_cycle;Signal;HPM_P1;HPM_P2
2021/10/05 00:02:09;;;;;;;10.65;4.15;;;15.10;99.90;;;15.59;79.00;101282.69;5066165;28;20726;-71
2021/10/05 00:04:37;;;;;;;11.55;4.85;;;15.00;99.90;;;15.57;78.66;101276.63;5063981;28;20211;-72
2021/10/05 00:07:04;;;;;;;12.95;4.30;;;15.00;99.90;;;15.57;78.80;101263.44;5065941;28;20211;-72
2021/10/05 00:09:32;;;;;;;12.27;4.43;;;15.00;99.90;;;15.58;78.88;101270.41;5067325;28;20253;-72
2021/10/05 00:12:00;;;;;;;10.77;4.40;;;15.00;99.90;;;15.59;78.81;101264.22;5068147;28;20711;-71
2021/10/05 00:14:26;;;;;;;13.82;5.07;;;15.00;99.90;;;15.59;78.83;101266.88;5065982;28;20209;-72
2021/10/05 00:16:53;;;;;;;12.23;4.13;;;15.00;99.90;;;15.58;78.85;101266.00;5061006;28;20200;-72
2021/10/05 00:19:20;;;;;;;11.63;4.10;;;15.10;99.90;;;15.58;78.60;101268.66;5070249;28;20211;-72
2021/10/05 00:21:49;;;;;;;13.50;4.45;;;15.00;99.90;;;15.59;78.90;101256.31;5071051;28;20192;-72
2021/10/05 00:24:16;;;;;;;10.35;3.90;;;15.00;99.90;;;15.59;78.39;101254.50;5068017;28;20688;-71
2021/10/05 00:26:43;;;;;;;13.30;4.03;;;15.00;99.90;;;15.60;78.40;101258.00;5065146;28;20841;-72
2021/10/05 00:29:10;;;;;;;10.68;4.25;;;15.00;99.90;;;15.59;78.05;101261.59;5064275;28;20188;-72
2021/10/05 00:31:37;;;;;;;14.18;4.13;;;15.00;99.90;;;15.60;78.10;101252.75;5064899;28;20200;-72
2021/10/05 00:34:04;;;;;;;12.55;4.43;;;15.00;99.90;;;15.61;78.28;101250.00;5067671;28;20208;-71
2021/10/05 00:36:30;;;;;;;14.18;4.78;;;15.10;99.90;;;15.62;77.97;101254.38;5070625;28;20204;-71
2021/10/05 00:38:59;;;;;;;12.50;4.18;;;15.10;99.90;;;15.63;77.73;101253.44;5068442;28;20606;-72
2021/10/05 00:41:26;;;;;;;12.20;4.07;;;15.10;99.90;;;15.64;77.87;101254.31;5067717;28;20208;-72
2021/10/05 00:43:53;;;;;;;13.60;4.60;;;15.10;99.90;;;15.62;77.20;101257.03;5072122;28;20204;-72
2021/10/05 00:46:21;;;;;;;11.23;3.80;;;15.10;99.90;;;15.62;77.31;101257.03;5064832;28;20189;-72
2021/10/05 00:48:48;;;;;;;11.05;3.85;;;15.10;99.90;;;15.62;77.45;101258.78;5069847;28;20227;-70
2021/10/05 00:51:15;;;;;;;8.70;3.20;;;15.10;99.90;;;15.61;77.03;101249.16;5066648;28;20303;-72
2021/10/05 00:53:43;;;;;;;9.48;3.25;;;15.10;99.90;;;15.59;76.18;101251.88;5070633;28;20227;-72
2021/10/05 00:56:11;;;;;;;9.75;3.58;;;15.00;99.90;;;15.59;75.94;101235.22;5070405;28;20253;-72
2021/10/05 00:58:38;;;;;;;12.05;3.70;;;15.00;99.90;;;15.61;75.76;101230.69;5070107;28;20215;-72
2021/10/05 01:01:05;;;;;;;13.65;3.95;;;15.10;99.90;;;15.62;75.97;101222.72;5068269;28;20228;-72
2021/10/05 01:03:32;;;;;;;9.80;3.30;;;15.00;99.90;;;15.60;75.83;101215.78;5071504;28;20216;-71
2021/10/05 01:05:59;;;;;;;10.88;3.45;;;15.10;99.90;;;15.59;75.55;101211.47;5070899;28;20197;-71
2021/10/05 01:08:26;;;;;;;11.38;3.72;;;15.00;99.90;;;15.59;75.91;101214.94;5065998;28;20307;-71
2021/10/05 01:10:53;;;;;;;11.20;3.05;;;15.00;99.90;;;15.58;75.48;101217.66;5065582;28;20191;-71
2021/10/05 01:13:21;;;;;;;11.50;3.10;;;15.00;99.90;;;15.57;75.45;101213.31;5070474;28;20208;-71
2021/10/05 01:15:47;;;;;;;11.25;3.30;;;15.00;99.90;;;15.58;75.29;101215.88;5070265;28;20246;-71
2021/10/05 01:18:15;;;;;;;8.18;3.13;;;15.00;99.90;;;15.56;74.57;101203.69;5071605;28;20200;-70
2021/10/05 01:21:06;;;;;;;10.27;3.03;;;15.00;99.90;;;15.57;74.32;101202.75;5073034;28;20204;-72
2021/10/05 01:23:34;;;;;;;10.85;3.17;;;14.90;99.90;;;15.55;73.85;101197.56;5064878;28;20263;-70
2021/10/05 01:26:02;;;;;;;10.32;3.10;;;14.90;99.90;;;15.53;73.74;101173.03;5072656;28;20222;-72
2021/10/05 01:28:31;;;;;;;10.75;3.08;;;14.90;99.90;;;15.53;73.68;101167.75;5070497;28;20307;-72
2021/10/05 01:31:00;;;;;;;10.63;2.80;;;14.90;99.90;;;15.52;73.46;101165.19;5069310;28;20199;-72
2021/10/05 01:33:30;;;;;;;9.25;2.78;;;14.90;99.90;;;15.51;73.49;101168.75;5068695;28;20219;-72
2021/10/05 01:35:57;;;;;;;9.40;2.95;;;14.90;99.90;;;15.49;73.55;101160.91;5064943;28;20668;-72
2021/10/05 01:38:25;;;;;;;9.45;3.40;;;14.90;99.90;;;15.49;73.78;101158.28;5060897;28;20199;-72
2021/10/05 01:40:53;;;;;;;9.05;3.22;;;14.80;99.90;;;15.48;73.72;101175.06;5068562;28;20200;-72
2021/10/05 01:43:20;;;;;;;9.00;2.90;;;14.90;99.90;;;15.50;73.82;101161.78;5066342;28;20303;-72
2021/10/05 01:45:48;;;;;;;13.15;3.63;;;14.90;99.90;;;15.50;73.96;101164.41;5070308;28;20196;-73
2021/10/05 01:48:16;;;;;;;11.38;2.95;;;14.90;99.90;;;15.50;74.13;101161.78;5070063;28;20219;-72
2021/10/05 01:50:43;;;;;;;10.57;3.10;;;14.90;99.90;;;15.50;74.15;101165.28;5069631;28;20601;-73
2021/10/05 01:53:10;;;;;;;9.75;2.78;;;14.90;99.90;;;15.48;74.28;101174.19;5070064;28;20212;-73
2021/10/05 01:55:38;;;;;;;11.23;3.03;;;14.90;99.90;;;15.47;74.35;101172.50;5063898;28;20246;-72
2021/10/05 01:58:05;;;;;;;11.98;3.00;;;14.80;99.90;;;15.46;74.73;101168.13;5069214;28;20202;-72
2021/10/05 02:00:31;;;;;;;9.20;2.88;;;14.80;99.90;;;15.46;74.58;101169.00;5072365;28;20184;-72
2021/10/05 02:02:58;;;;;;;12.95;2.95;;;14.80;99.90;;;15.47;74.40;101172.50;5080743;28;20212;-72
2021/10/05 02:05:25;;;;;;;9.65;2.83;;;14.80;99.90;;;15.45;74.47;101164.66;5091518;28;20275;-72
2021/10/05 02:07:51;;;;;;;10.95;2.58;;;14.80;99.90;;;15.46;74.76;101158.44;5081842;28;20220;-73
2021/10/05 02:10:19;;;;;;;11.60;2.70;;;14.80;99.90;;;15.46;74.61;101150.53;5069791;28;20206;-71
2021/10/05 02:12:47;;;;;;;10.10;2.33;;;14.80;99.90;;;15.44;74.56;101148.91;5074202;28;20201;-72
2021/10/05 02:15:14;;;;;;;12.55;2.55;;;14.80;99.90;;;15.45;74.57;101137.41;5088315;28;20226;-74
2021/10/05 02:17:40;;;;;;;8.80;2.55;;;14.80;99.90;;;15.43;74.20;101131.34;5092849;28;20180;-72
2021/10/05 02:20:09;;;;;;;9.50;2.47;;;14.80;99.90;;;15.43;74.14;101128.72;5092949;28;20180;-73
2021/10/05 02:22:36;;;;;;;9.85;2.17;;;14.80;99.90;;;15.41;74.37;101134.06;5093162;28;20196;-73
2021/10/05 02:25:04;;;;;;;9.80;2.50;;;14.80;99.90;;;15.41;74.17;101130.56;5096090;28;20187;-71
2021/10/05 02:27:31;;;;;;;11.60;2.25;;;14.70;99.90;;;15.42;74.41;101127.03;5095075;28;20229;-72
2021/10/05 02:30:00;;;;;;;9.52;2.47;;;14.70;99.90;;;15.41;74.24;101120.03;5089930;28;20176;-73
2021/10/05 02:32:27;;;;;;;8.45;2.30;;;14.70;99.90;;;15.39;74.03;101117.47;5094713;28;20172;-73
2021/10/05 02:34:54;;;;;;;12.30;2.40;;;14.70;99.90;;;15.39;74.28;101121.88;5094621;28;20180;-72
2021/10/05 02:37:21;;;;;;;9.00;2.10;;;14.70;99.90;;;15.37;74.33;101113.19;5094344;28;22126;-73
2021/10/05 02:39:48;;;;;;;9.60;2.28;;;14.70;99.90;;;15.37;74.15;101107.91;5090290;28;20207;-72
2021/10/05 02:42:15;;;;;;;10.75;2.45;;;14.70;99.90;;;15.37;74.22;101113.19;5089985;28;20184;-74
2021/10/05 02:44:42;;;;;;;9.68;2.38;;;14.70;99.90;;;15.35;74.42;101100.09;5088052;28;20258;-73
2021/10/05 02:47:10;;;;;;;7.47;2.15;;;14.70;99.90;;;15.35;74.32;101094.81;5086080;28;20230;-71
2021/10/05 02:49:43;;;;;;;11.13;2.80;;;14.70;99.90;;;15.35;74.21;101086.03;5089319;28;20175;-72
2021/10/05 02:52:10;;;;;;;10.93;3.20;;;14.70;99.90;;;15.33;74.25;101086.13;5093551;28;20191;-71
2021/10/05 02:54:37;;;;;;;8.82;2.45;;;14.70;99.90;;;15.32;74.50;101091.47;5081790;28;20208;-70
2021/10/05 02:57:05;;;;;;;10.93;2.55;;;14.70;99.90;;;15.31;74.45;101084.47;5087474;28;20179;-73
2021/10/05 02:59:32;;;;;;;9.63;2.25;;;14.70;99.90;;;15.29;74.22;101068.72;5094693;28;20195;-72
2021/10/05 03:01:59;;;;;;;10.05;2.65;;;14.70;99.90;;;15.29;74.41;101074.00;5094373;28;20196;-71
2021/10/05 03:04:27;;;;;;;9.35;2.30;;;14.70;99.90;;;15.28;74.22;101071.44;5107949;28;20226;-73
2021/10/05 03:06:54;;;;;;;11.07;2.53;;;14.70;99.90;;;15.28;74.50;101063.53;5084867;28;20185;-72
2021/10/05 03:09:21;;;;;;;10.13;2.80;;;14.70;99.90;;;15.28;74.46;101063.53;5086087;28;20205;-72
2021/10/05 03:11:47;;;;;;;9.73;2.13;;;14.70;99.90;;;15.28;74.52;101067.03;5095371;28;20191;-72
2021/10/05 03:14:14;;;;;;;7.15;1.98;;;14.60;99.90;;;15.27;74.54;101048.66;5093486;28;20212;-71
2021/10/05 03:16:41;;;;;;;12.50;2.45;;;14.60;99.90;;;15.25;74.50;101040.81;5092391;28;20205;-72
2021/10/05 03:19:08;;;;;;;10.27;2.50;;;14.60;99.90;;;15.24;74.48;101033.00;5083013;28;20269;-71
2021/10/05 03:21:37;;;;;;;9.48;2.08;;;14.50;99.90;;;15.22;74.84;101037.50;5071914;28;20189;-71
2021/10/05 03:24:04;;;;;;;7.18;1.70;;;14.60;99.90;;;15.22;74.63;101025.13;5064585;28;20216;-71
2021/10/05 03:26:31;;;;;;;10.90;2.38;;;14.60;99.90;;;15.24;74.49;101027.72;5068288;28;20196;-71
2021/10/05 03:28:58;;;;;;;8.48;2.70;;;14.60;99.90;;;15.22;74.27;101019.88;5066016;28;20299;-70
2021/10/05 03:31:25;;;;;;;8.20;1.88;;;14.60;99.90;;;15.22;74.08;101019.88;5068257;28;20196;-70
2021/10/05 03:33:52;;;;;;;9.45;2.17;;;14.60;99.90;;;15.21;74.36;101012.91;5060056;28;20211;-71
2021/10/05 03:36:19;;;;;;;9.45;2.00;;;14.60;99.90;;;15.21;74.37;101004.13;5069226;28;20184;-71
2021/10/05 03:38:47;;;;;;;8.93;1.90;;;14.60;99.90;;;15.19;74.19;100993.66;5066797;28;20223;-71
2021/10/05 03:41:14;;;;;;;8.02;2.03;;;14.60;99.90;;;15.17;74.60;100992.88;5066844;28;20203;-70
2021/10/05 03:43:41;;;;;;;8.52;2.33;;;14.50;99.90;;;15.14;74.40;100994.84;5069702;28;20219;-71
2021/10/05 03:46:09;;;;;;;9.77;2.25;;;14.50;99.90;;;15.11;74.38;100995.84;5068386;28;20203;-71
2021/10/05 03:48:36;;;;;;;8.77;1.95;;;14.50;99.90;;;15.09;74.48;100985.38;5062053;28;20216;-70
2021/10/05 03:51:03;;;;;;;11.45;1.80;;;14.40;99.90;;;15.08;74.28;100986.34;5065760;28;20188;-71
2021/10/05 03:53:30;;;;;;;6.45;1.70;;;14.40;99.90;;;15.07;74.61;100979.34;5081587;28;20220;-71
2021/10/05 03:55:59;;;;;;;8.50;2.10;;;14.40;99.90;;;15.04;74.23;100976.84;5068595;28;20195;-71
2021/10/05 03:58:27;;;;;;;14.15;2.17;;;14.40;99.90;;;15.03;74.27;100977.81;5069822;28;20569;-69
2021/10/05 04:00:54;;;;;;;6.82;2.10;;;14.40;99.90;;;15.04;74.32;100968.94;5061116;28;20192;-71
2021/10/05 04:03:23;;;;;;;5.75;1.52;;;14.40;99.90;;;15.02;74.54;100960.25;5064907;28;20734;-70
2021/10/05 04:05:51;;;;;;;9.02;1.92;;;14.40;99.90;;;15.02;74.66;100957.63;5078333;28;20196;-70
2021/10/05 04:08:17;;;;;;;7.93;1.58;;;14.40;99.90;;;15.01;74.84;100949.81;5057061;28;20207;-71
2021/10/05 04:10:44;;;;;;;10.68;1.90;;;14.40;99.90;;;14.99;75.17;100949.88;5058023;28;20203;-71
2021/10/05 04:13:12;;;;;;;10.23;2.38;;;14.40;99.90;;;14.99;75.32;100943.75;5063557;28;20223;-74
2021/10/05 04:15:39;;;;;;;9.10;1.95;;;14.30;99.90;;;14.95;75.21;100921.97;5060845;28;20628;-71
2021/10/05 04:18:06;;;;;;;11.43;2.20;;;14.30;99.90;;;14.94;75.29;100922.91;5063108;28;20196;-70
2021/10/05 04:20:33;;;;;;;9.75;1.92;;;14.30;99.90;;;14.94;75.54;100920.28;5059692;28;20596;-70
2021/10/05 04:23:00;;;;;;;7.55;1.58;;;14.30;99.90;;;14.91;75.75;100917.81;5067417;28;20220;-72
2021/10/05 04:25:27;;;;;;;6.50;1.67;;;14.20;99.90;;;14.90;75.95;100917.91;5067684;28;20210;-70
2021/10/05 04:27:54;;;;;;;6.95;1.60;;;14.20;99.90;;;14.86;76.28;100909.28;5058726;28;20215;-69
2021/10/05 04:30:22;;;;;;;11.73;2.25;;;14.10;99.90;;;14.84;76.48;100908.50;5079672;28;20527;-70
2021/10/05 04:32:49;;;;;;;10.48;1.90;;;14.00;99.90;;;14.82;76.72;100897.19;5060190;28;20219;-70
2021/10/05 04:35:16;;;;;;;9.65;2.55;;;14.00;99.90;;;14.82;77.32;100912.16;5062531;28;20199;-71
2021/10/05 04:37:42;;;;;;;8.90;2.30;;;14.00;99.90;;;14.79;77.61;100904.41;5066078;28;20226;-71
2021/10/05 04:40:11;;;;;;;8.98;1.90;;;13.90;99.90;;;14.75;78.13;100900.25;5065402;28;20192;-71
2021/10/05 04:42:38;;;;;;;10.13;2.10;;;13.90;99.90;;;14.70;78.82;100897.00;5053527;28;20204;-71
2021/10/05 04:45:07;;;;;;;6.68;2.05;;;13.90;99.90;;;14.66;79.59;100893.66;5063542;28;20249;-70
2021/10/05 04:47:36;;;;;;;7.43;1.70;;;13.80;99.90;;;14.64;80.30;100890.25;5065937;28;20226;-71
2021/10/05 04:50:08;;;;;;;7.38;1.90;;;13.80;99.90;;;14.64;80.22;100884.97;5066099;28;20734;-70
2021/10/05 04:52:35;;;;;;;6.50;1.65;;;13.80;99.90;;;14.64;80.79;100884.13;5060987;28;20191;-71
2021/10/05 04:55:02;;;;;;;9.15;1.88;;;13.80;99.90;;;14.65;80.97;100870.88;5067149;28;20200;-70
2021/10/05 04:57:29;;;;;;;9.15;2.20;;;13.80;99.90;;;14.63;81.06;100870.13;5066072;28;20185;-71
2021/10/05 04:59:55;;;;;;;8.70;2.10;;;13.70;99.90;;;14.59;81.66;100865.94;5068694;28;20200;-71
2021/10/05 05:02:22;;;;;;;11.27;2.40;;;13.60;99.90;;;14.56;82.18;100855.56;5061201;28;20289;-71
2021/10/05 05:04:50;;;;;;;10.80;2.30;;;13.50;99.90;;;14.52;82.59;100855.78;5066835;28;20762;-71
2021/10/05 05:07:17;;;;;;;9.32;2.25;;;13.50;99.90;;;14.48;82.98;100863.00;5071372;28;20235;-70
2021/10/05 05:09:44;;;;;;;8.32;2.80;;;13.40;99.90;;;14.41;83.76;100856.34;5068476;28;20220;-72
2021/10/05 05:12:11;;;;;;;8.30;2.38;;;13.30;99.90;;;14.36;84.35;100858.34;5069433;28;20197;-70
2021/10/05 05:14:38;;;;;;;11.13;2.80;;;13.30;99.90;;;14.29;85.13;100849.06;5059218;28;20568;-71
2021/10/05 05:17:04;;;;;;;8.93;2.88;;;13.20;99.90;;;14.21;85.91;100838.03;5071476;28;20543;-71
2021/10/05 05:19:31;;;;;;;9.90;2.65;;;13.10;99.90;;;14.12;86.58;100846.38;5080734;28;20192;-71
2021/10/05 05:22:00;;;;;;;10.38;2.35;;;13.00;99.90;;;14.03;87.48;100846.84;5076954;28;20192;-72
2021/10/05 05:24:28;;;;;;;10.82;2.85;;;13.00;99.90;;;13.97;88.29;100838.38;5079043;28;20213;-72
2021/10/05 05:26:55;;;;;;;10.60;2.80;;;12.90;99.90;;;13.91;89.09;100830.81;5077372;28;20196;-70
2021/10/05 05:29:22;;;;;;;9.50;3.17;;;12.90;99.90;;;13.87;89.56;100824.84;5073562;28;20254;-71
2021/10/05 05:31:49;;;;;;;11.20;3.22;;;12.90;99.90;;;13.86;90.03;100820.53;5056570;28;20216;-71
2021/10/05 05:34:16;;;;;;;12.13;5.30;;;12.90;99.90;;;13.85;90.64;100818.81;5063806;28;20204;-72
2021/10/05 05:36:43;;;;;;;13.10;5.30;;;12.90;99.90;;;13.83;91.22;100818.06;5066700;28;20680;-71
2021/10/05 05:39:11;;;;;;;15.15;5.57;;;12.90;99.90;;;13.81;91.70;100812.84;5068324;28;20191;-71
2021/10/05 05:41:38;;;;;;;12.07;5.78;;;12.90;99.90;;;13.82;91.91;100818.97;5067992;28;20184;-71
2021/10/05 05:44:05;;;;;;;15.32;4.80;;;12.80;99.90;;;13.79;92.22;100814.72;5068512;28;20765;-71
2021/10/05 05:46:32;;;;;;;16.25;6.60;;;12.80;99.90;;;13.78;92.52;100813.00;5069211;28;20192;-72
2021/10/05 05:48:59;;;;;;;13.43;6.38;;;12.80;99.90;;;13.79;92.95;100801.56;5071483;28;20212;-71
2021/10/05 05:51:25;;;;;;;13.48;5.80;;;12.80;99.90;;;13.79;92.92;100808.59;5064078;28;20193;-72
2021/10/05 05:53:52;;;;;;;16.08;6.65;;;12.80;99.90;;;13.78;93.10;100806.91;5070986;28;20223;-72
2021/10/05 05:56:20;;;;;;;18.55;9.23;;;12.90;99.90;;;13.77;93.74;100789.41;5066912;28;20189;-72
2021/10/05 05:58:48;;;;;;;14.18;7.55;;;12.90;99.90;;;13.78;93.83;100791.94;5058657;28;20193;-72
2021/10/05 06:01:16;;;;;;;23.70;11.35;;;12.90;99.90;;;13.78;94.18;100794.56;5063595;28;20211;-73
2021/10/05 06:03:46;;;;;;;14.35;7.57;;;12.80;99.90;;;13.79;94.21;100800.69;5067332;28;20215;-73
2021/10/05 06:06:13;;;;;;;13.73;5.40;;;12.90;99.90;;;13.79;94.08;100798.94;5067946;28;20192;-73
2021/10/05 06:08:39;;;;;;;11.73;4.05;;;12.90;99.90;;;13.81;94.17;100786.53;5066821;28;20304;-73
2021/10/05 06:11:06;;;;;;;11.23;4.57;;;12.90;99.90;;;13.83;94.04;100778.59;5058410;28;20203;-73
2021/10/05 06:13:34;;;;;;;11.23;4.15;;;12.90;99.90;;;13.82;94.46;100764.56;5058811;28;20207;-73
2021/10/05 06:16:01;;;;;;;11.65;4.53;;;12.90;99.90;;;13.83;94.22;100752.28;5065756;28;20272;-74
2021/10/05 06:18:28;;;;;;;12.07;6.03;;;12.90;99.90;;;13.83;94.54;100754.91;5068584;28;20242;-74
2021/10/05 06:20:55;;;;;;;17.90;8.07;;;12.90;99.90;;;13.84;94.95;100753.97;5060744;28;20188;-73
2021/10/05 06:23:21;;;;;;;14.75;9.15;;;12.90;99.90;;;13.87;94.67;100751.19;5067468;28;21034;-74
2021/10/05 06:25:53;;;;;;;15.25;10.35;;;12.90;99.90;;;13.91;94.63;100750.09;5058434;28;20676;-74
2021/10/05 06:28:20;;;;;;;17.63;9.05;;;13.00;99.90;;;13.98;94.67;100750.66;5061137;28;20578;-74
2021/10/05 06:30:49;;;;;;;17.35;9.00;;;13.10;99.90;;;14.01;94.58;100745.22;5059032;28;20207;-73
2021/10/05 06:33:17;;;;;;;15.10;7.82;;;13.10;99.90;;;14.05;94.83;100749.41;5062376;28;20228;-71
2021/10/05 06:35:45;;;;;;;12.00;5.35;;;13.20;99.90;;;14.06;94.76;100744.06;5062087;28;20208;-74
2021/10/05 06:38:13;;;;;;;14.27;4.55;;;13.20;99.90;;;14.10;94.55;100747.41;5065037;28;20203;-72
2021/10/05 06:40:42;;;;;;;14.65;5.20;;;13.30;99.90;;;14.11;94.54;100731.53;5070928;28;20533;-73
2021/10/05 06:43:10;;;;;;;18.80;5.72;;;13.40;99.90;;;14.12;94.62;100725.31;5062159;28;20270;-73
2021/10/05 06:45:37;;;;;;;11.43;3.97;;;13.40;99.90;;;14.16;94.78;100724.25;5058164;28;20289;-72
2021/10/05 06:48:07;;;;;;;13.88;4.53;;;13.50;99.90;;;14.19;94.32;100728.47;5059034;28;20200;-72
2021/10/05 06:50:35;;;;;;;13.00;4.25;;;13.50;99.90;;;14.22;94.45;100723.03;5068408;28;20191;-73
2021/10/05 06:53:03;;;;;;;12.80;4.18;;;13.50;99.90;;;14.23;94.44;100708.97;5052715;28;20659;-72
2021/10/05 06:55:32;;;;;;;13.85;5.18;;;13.60;99.90;;;14.26;94.19;100704.44;5065334;28;20192;-74
2021/10/05 06:58:00;;;;;;;12.90;5.65;;;13.60;99.90;;;14.29;94.31;100698.13;5069028;28;20570;-73
2021/10/05 07:00:28;;;;;;;12.88;4.65;;;13.60;99.90;;;14.32;94.31;100682.16;5059922;28;20279;-73
2021/10/05 07:02:55;;;;;;;10.50;3.75;;;13.70;99.90;;;14.31;94.65;100676.06;5078214;28;20212;-74
2021/10/05 07:05:23;;;;;;;10.13;4.05;;;13.70;99.90;;;14.36;94.31;100674.03;5061639;28;20636;-73
2021/10/05 07:07:53;;;;;;;16.10;4.78;;;13.70;99.90;;;14.39;94.58;100665.97;5066086;28;20195;-72
2021/10/05 07:10:23;;;;;;;11.68;4.28;;;13.70;99.90;;;14.41;94.46;100661.47;5062510;28;20221;-73
2021/10/05 07:12:51;;;;;;;11.60;4.55;;;13.70;99.90;;;14.42;94.16;100663.16;5070182;28;20643;-73
2021/10/05 07:15:18;;;;;;;10.85;4.40;;;13.70;99.90;;;14.44;94.65;100648.16;5061372;28;20228;-72
2021/10/05 07:17:45;;;;;;;10.30;4.63;;;13.80;99.90;;;14.44;94.46;100648.16;5063340;28;20207;-72
2021/10/05 07:20:12;;;;;;;13.85;5.10;;;13.80;99.90;;;14.46;94.28;100648.06;5066746;28;20199;-72
2021/10/05 07:22:40;;;;;;;12.45;4.88;;;13.80;99.90;;;14.46;94.22;100637.53;5063699;28;20215;-72
2021/10/05 07:25:08;;;;;;;15.45;5.07;;;13.80;99.90;;;14.48;94.53;100636.53;5062827;28;20528;-73
2021/10/05 07:27:35;;;;;;;15.23;5.15;;;13.80;99.90;;;14.50;94.51;100632.00;5059927;28;20215;-71
2021/10/05 07:30:05;;;;;;;17.48;6.05;;;13.80;99.90;;;14.51;94.92;100625.81;5067514;28;20219;-71
2021/10/05 07:32:32;;;;;;;15.40;5.95;;;13.80;99.90;;;14.52;94.54;100622.22;5067397;28;20687;-71
2021/10/05 07:35:00;;;;;;;14.20;5.70;;;13.80;99.90;;;14.51;94.49;100612.66;5060389;28;20187;-73
2021/10/05 07:37:27;;;;;;;14.27;6.18;;;13.80;99.90;;;14.52;94.78;100606.44;5068062;28;20188;-72
2021/10/05 07:39:57;;;;;;;13.70;5.63;;;13.80;99.90;;;14.52;94.59;100606.44;5065218;28;20242;-76
2021/10/05 07:42:24;;;;;;;14.18;6.30;;;13.80;99.90;;;14.52;94.77;100606.44;5064391;28;20196;-73
2021/10/05 07:44:51;;;;;;;14.13;5.80;;;13.80;99.90;;;14.54;94.90;100601.94;5058863;28;20216;-73
2021/10/05 07:47:18;;;;;;;13.82;5.55;;;13.90;99.90;;;14.54;94.74;100598.44;5059276;28;20249;-72
2021/10/05 07:49:45;;;;;;;14.55;6.43;;;13.90;99.90;;;14.54;94.76;100601.06;5067474;28;20508;-72
2021/10/05 07:52:12;;;;;;;16.10;6.03;;;13.90;99.90;;;14.55;94.93;100581.72;5059229;28;20201;-70
2021/10/05 07:54:39;;;;;;;17.38;6.15;;;13.90;99.90;;;14.56;95.15;100580.78;5052948;28;20208;-71
2021/10/05 07:57:07;;;;;;;13.98;5.93;;;13.90;99.90;;;14.56;94.79;100570.25;5063723;28;20198;-72
2021/10/05 07:59:34;;;;;;;15.70;6.63;;;13.90;99.90;;;14.59;95.06;100563.03;5067637;28;20232;-73
2021/10/05 08:02:01;;;;;;;14.98;6.95;;;13.90;99.90;;;14.60;94.85;100556.81;5064816;28;20196;-71
2021/10/05 08:04:28;;;;;;;14.82;6.53;;;13.90;99.90;;;14.61;95.03;100553.25;5054495;28;20641;-72
2021/10/05 08:06:55;;;;;;;17.75;6.85;;;13.90;99.90;;;14.63;94.97;100535.59;5062947;28;20199;-72
2021/10/05 08:09:22;;;;;;;15.00;7.07;;;13.90;99.90;;;14.63;94.89;100535.59;5066318;28;20211;-71
2021/10/05 08:11:48;;;;;;;14.73;6.90;;;13.90;99.90;;;14.66;94.94;100527.50;5061976;28;20192;-71
2021/10/05 08:14:17;;;;;;;18.45;7.32;;;13.90;99.90;;;14.68;94.85;100517.72;5064718;28;20798;-69
2021/10/05 08:16:44;;;;;;;14.50;7.07;;;14.00;99.90;;;14.69;95.10;100511.50;5067683;28;20270;-71
2021/10/05 08:19:11;;;;;;;17.27;7.43;;;14.00;99.90;;;14.70;94.93;100501.84;5066924;28;20192;-71
2021/10/05 08:21:38;;;;;;;20.70;7.65;;;14.00;99.90;;;14.72;95.14;100508.69;5068501;28;20189;-70
2021/10/05 08:24:05;;;;;;;15.90;8.02;;;14.00;99.90;;;14.73;95.34;100502.50;5065397;28;20215;-72
2021/10/05 08:26:32;;;;;;;18.70;9.15;;;14.00;99.90;;;14.74;95.49;100503.34;5065603;28;20549;-72
2021/10/05 08:28:59;;;;;;;17.30;8.02;;;14.00;99.90;;;14.76;95.61;100491.78;5065835;28;20277;-72
2021/10/05 08:31:27;;;;;;;22.85;8.38;;;14.00;99.90;;;14.78;95.28;100489.91;5056745;28;20193;-72
2021/10/05 08:33:54;;;;;;;17.92;8.48;;;14.00;99.90;;;14.80;95.36;100474.84;5058144;28;20219;-72
2021/10/05 08:36:21;;;;;;;20.85;8.25;;;14.00;99.90;;;14.82;95.40;100478.25;5068108;28;20193;-73
2021/10/05 08:38:48;;;;;;;18.90;8.98;;;14.10;99.90;;;14.86;95.39;100484.19;5058284;28;20193;-75
2021/10/05 08:41:15;;;;;;;19.42;9.45;;;14.10;99.90;;;14.88;95.22;100493.72;5083223;28;20250;-75
2021/10/05 08:43:44;;;;;;;21.75;9.85;;;14.10;99.90;;;14.90;95.65;100486.53;5086468;28;20220;-75
2021/10/05 08:46:11;;;;;;;20.48;10.00;;;14.20;99.90;;;14.92;95.25;100495.19;5073834;28;20224;-75
2021/10/05 08:48:41;;;;;;;23.40;10.57;;;14.20;99.90;;;14.94;95.38;100490.69;5065213;28;20245;-75
2021/10/05 08:51:08;;;;;;;24.45;10.18;;;14.20;99.90;;;14.94;95.25;100488.06;5061920;28;20200;-75
2021/10/05 08:53:37;;;;;;;21.77;10.75;;;14.20;99.90;;;14.92;95.49;100484.66;5060752;28;20208;-75
2021/10/05 08:56:07;;;;;;;24.25;11.32;;;14.20;99.90;;;14.90;95.53;100480.44;5062721;28;20201;-75
2021/10/05 08:58:34;;;;;;;24.40;11.70;;;14.20;99.90;;;14.86;95.96;100478.91;5066087;28;20197;-75
2021/10/05 09:01:10;;;;;;;21.95;11.05;;;14.10;99.90;;;14.83;96.30;100464.16;5065488;28;20645;-72
2021/10/05 09:03:38;;;;;;;28.95;14.10;;;14.20;99.90;;;14.82;96.58;100470.34;5060372;28;20231;-72
2021/10/05 09:06:14;;;;;;;28.02;13.50;;;14.20;99.90;;;14.82;96.90;100464.22;5064090;28;20275;-71
2021/10/05 09:08:45;;;;;;;30.15;14.65;;;14.20;99.90;;;14.80;96.93;100468.75;5055617;28;20204;-71
2021/10/05 09:11:13;;;;;;;33.78;15.57;;;14.20;99.90;;;14.79;97.53;100469.66;5065014;28;20197;-72
2021/10/05 09:13:43;;;;;;;28.05;14.25;;;14.30;99.90;;;14.80;97.72;100468.75;5068968;28;20230;-74
2021/10/05 09:16:21;;;;;;;29.40;13.63;;;14.30;99.90;;;14.79;98.44;100473.16;5062081;28;20271;-74
2021/10/05 09:18:57;;;;;;;26.42;14.02;;;14.30;99.90;;;14.80;98.48;100474.00;5061862;28;20572;-73
2021/10/05 09:21:29;;;;;;;30.15;14.07;;;14.20;99.90;;;14.80;98.97;100474.00;5057311;28;20188;-71
2021/10/05 09:24:00;;;;;;;33.13;14.10;;;14.30;99.90;;;14.80;98.73;100463.47;5056443;28;20208;-80
2021/10/05 09:26:41;;;;;;;29.33;13.82;;;14.20;99.90;;;14.75;98.67;100458.44;5046550;28;20209;-76
2021/10/05 09:29:19;;;;;;;30.02;13.98;;;14.20;99.90;;;14.76;99.02;100451.41;5052656;28;20208;-72
2021/10/05 09:32:00;;;;;;;28.83;13.88;;;14.10;99.90;;;14.79;99.03;100454.72;5062515;28;20192;-74
2021/10/05 09:34:50;;;;;;;30.50;13.45;;;14.20;99.90;;;14.84;99.23;100447.38;5063665;28;20215;-74
2021/10/05 09:37:21;;;;;;;29.30;14.80;;;14.20;99.90;;;14.85;99.14;100446.44;5058156;28;20192;-74
2021/10/05 09:39:52;;;;;;;33.00;16.13;;;14.20;99.90;;;14.88;99.21;100443.63;5059220;28;20185;-75
2021/10/05 09:42:26;;;;;;;32.42;16.00;;;14.30;99.90;;;14.90;99.77;100449.63;5081667;28;20200;-76
2021/10/05 09:44:56;;;;;;;32.42;16.88;;;14.30;99.90;;;14.92;99.58;100441.63;5070105;28;20727;-74
2021/10/05 09:47:36;;;;;;;32.28;16.23;;;14.30;99.90;;;14.91;99.73;100438.19;5066180;28;20205;-75
2021/10/05 09:50:09;;;;;;;26.88;15.25;;;14.30;99.90;;;14.92;99.98;100433.72;5066928;28;20223;-75
2021/10/05 09:52:44;;;;;;;34.25;15.95;;;14.30;99.90;;;14.91;99.86;100417.09;5069346;28;20212;-74
2021/10/05 09:55:11;;;;;;;32.70;17.25;;;14.30;99.90;;;14.92;100.00;100415.28;5058319;28;20208;-75
2021/10/05 09:57:38;;;;;;;34.80;17.33;;;14.30;99.90;;;14.94;100.00;100424.81;5060884;28;20665;-76
2021/10/05 10:00:08;;;;;;;35.10;17.13;;;14.30;99.90;;;14.95;100.00;100415.94;5061185;28;20192;-75
2021/10/05 10:02:42;;;;;;;36.92;17.55;;;14.30;99.90;;;14.94;100.00;100416.06;5059835;28;20192;-77
2021/10/05 10:05:13;;;;;;;33.67;17.80;;;14.30;99.90;;;14.94;100.00;100409.00;5067649;28;20199;-76
2021/10/05 10:07:45;;;;;;;34.28;16.77;;;14.30;99.90;;;14.94;100.00;100400.25;5054223;28;21659;-76
2021/10/05 10:10:14;;;;;;;36.65;17.48;;;14.30;99.90;;;14.96;100.00;100399.22;5076110;28;20212;-75
2021/10/05 10:12:46;;;;;;;35.05;18.20;;;14.40;99.90;;;14.98;100.00;100396.50;5056825;28;20195;-75